sensor_id;sensor_type;location;lat;lon;timestamp;pressure;altitude;pressure_sealevel;temperature;humidity
22000;BME280;11164;48.818;2.322;2022-10-17T00:00:40;100492.81;;;18.87;56.02
22000;BME280;11164;48.818;2.322;2022-10-17T00:03:05;100502.34;;;18.84;56.12
22000;BME280;11164;48.818;2.322;2022-10-17T00:05:31;100503.69;;;18.82;55.99
22000;BME280;11164;48.818;2.322;2022-10-17T00:07:56;100509.22;;;18.87;56.07
22000;BME280;11164;48.818;2.322;2022-10-17T00:10:22;100508.69;;;18.90;55.92
22000;BME280;11164;48.818;2.322;2022-10-17T00:12:47;100506.47;;;18.87;55.93
22000;BME280;11164;48.818;2.322;2022-10-17T00:15:16;100510.78;;;18.83;55.90
22000;BME280;11164;48.818;2.322;2022-10-17T00:17:41;100516.25;;;18.83;55.90
22000;BME280;11164;48.818;2.322;2022-10-17T00:20:07;100513.19;;;18.79;56.23
22000;BME280;11164;48.818;2.322;2022-10-17T00:22:32;100515.69;;;18.81;55.92
22000;BME280;11164;48.818;2.322;2022-10-17T00:24:58;100507.78;;;18.84;55.78
22000;BME280;11164;48.818;2.322;2022-10-17T00:27:23;100517.41;;;18.87;55.87
22000;BME280;11164;48.818;2.322;2022-10-17T00:29:49;100510.53;;;18.84;55.78
22000;BME280;11164;48.818;2.322;2022-10-17T00:32:15;100516.00;;;18.84;55.76
22000;BME280;11164;48.818;2.322;2022-10-17T00:34:41;100514.94;;;18.85;55.67
22000;BME280;11164;48.818;2.322;2022-10-17T00:37:06;100520.88;;;18.82;55.81
22000;BME280;11164;48.818;2.322;2022-10-17T00:39:32;100528.78;;;18.79;55.70
22000;BME280;11164;48.818;2.322;2022-10-17T00:41:57;100515.38;;;18.77;55.85
22000;BME280;11164;48.818;2.322;2022-10-17T00:46:55;100535.44;;;18.88;55.41
22000;BME280;11164;48.818;2.322;2022-10-17T00:49:22;100518.66;;;18.79;55.55
22000;BME280;11164;48.818;2.322;2022-10-17T00:51:52;100524.19;;;18.84;55.71
22000;BME280;11164;48.818;2.322;2022-10-17T00:54:23;100523.19;;;18.90;55.71
22000;BME280;11164;48.818;2.322;2022-10-17T00:56:49;100523.94;;;18.86;55.63
22000;BME280;11164;48.818;2.322;2022-10-17T00:59:19;100522.31;;;18.85;55.44
22000;BME280;11164;48.818;2.322;2022-10-17T01:01:55;100531.25;;;18.80;55.72
22000;BME280;11164;48.818;2.322;2022-10-17T01:04:23;100525.28;;;18.83;55.81
22000;BME280;11164;48.818;2.322;2022-10-17T01:06:49;100533.22;;;18.85;55.54
22000;BME280;11164;48.818;2.322;2022-10-17T01:09:14;100533.22;;;18.85;55.60
22000;BME280;11164;48.818;2.322;2022-10-17T01:11:55;100524.13;;;18.79;55.64
22000;BME280;11164;48.818;2.322;2022-10-17T01:17:13;100525.16;;;18.73;56.00
22000;BME280;11164;48.818;2.322;2022-10-17T01:29:04;100547.31;;;18.77;55.22
22000;BME280;11164;48.818;2.322;2022-10-17T01:34:11;100549.56;;;18.80;55.55
22000;BME280;11164;48.818;2.322;2022-10-17T01:39:22;100550.13;;;18.82;55.34
22000;BME280;11164;48.818;2.322;2022-10-17T01:41:51;100545.97;;;18.79;55.41
22000;BME280;11164;48.818;2.322;2022-10-17T01:46:51;100553.28;;;18.73;55.30
22000;BME280;11164;48.818;2.322;2022-10-17T01:49:22;100558.81;;;18.79;55.32
22000;BME280;11164;48.818;2.322;2022-10-17T01:51:57;100564.53;;;18.77;55.28
22000;BME280;11164;48.818;2.322;2022-10-17T01:54:30;100555.47;;;18.71;55.28
22000;BME280;11164;48.818;2.322;2022-10-17T01:57:03;100553.47;;;18.67;54.89
22000;BME280;11164;48.818;2.322;2022-10-17T01:59:35;100562.00;;;18.70;55.39
22000;BME280;11164;48.818;2.322;2022-10-17T02:02:04;100553.78;;;18.70;55.26
22000;BME280;11164;48.818;2.322;2022-10-17T02:04:30;100556.75;;;18.64;55.30
22000;BME280;11164;48.818;2.322;2022-10-17T02:06:55;100551.31;;;18.69;55.39
22000;BME280;11164;48.818;2.322;2022-10-17T02:09:23;100554.03;;;18.69;55.24
22000;BME280;11164;48.818;2.322;2022-10-17T02:12:19;100553.28;;;18.73;54.57
22000;BME280;11164;48.818;2.322;2022-10-17T02:17:44;100555.78;;;18.75;54.59
22000;BME280;11164;48.818;2.322;2022-10-17T02:20:30;100560.34;;;18.69;54.77
22000;BME280;11164;48.818;2.322;2022-10-17T02:23:03;100549.94;;;18.66;55.14
22000;BME280;11164;48.818;2.322;2022-10-17T02:29:02;100521.69;;;18.55;54.41
22000;BME280;11164;48.818;2.322;2022-10-17T02:31:50;100535.41;;;18.61;54.97
22000;BME280;11164;48.818;2.322;2022-10-17T02:34:25;100531.75;;;18.55;55.20
22000;BME280;11164;48.818;2.322;2022-10-17T02:36:56;100530.44;;;18.58;55.13
22000;BME280;11164;48.818;2.322;2022-10-17T02:39:24;100536.72;;;18.58;54.86
22000;BME280;11164;48.818;2.322;2022-10-17T02:41:51;100529.03;;;18.55;54.99
22000;BME280;11164;48.818;2.322;2022-10-17T02:44:19;100534.56;;;18.60;54.98
22000;BME280;11164;48.818;2.322;2022-10-17T02:46:50;100532.91;;;18.59;54.68
22000;BME280;11164;48.818;2.322;2022-10-17T02:49:27;100549.81;;;18.56;54.98
22000;BME280;11164;48.818;2.322;2022-10-17T02:52:05;100550.69;;;18.62;54.60
22000;BME280;11164;48.818;2.322;2022-10-17T02:54:46;100551.72;;;18.55;54.83
22000;BME280;11164;48.818;2.322;2022-10-17T02:57:24;100564.88;;;18.59;54.93
22000;BME280;11164;48.818;2.322;2022-10-17T02:59:51;100563.28;;;18.63;54.87
22000;BME280;11164;48.818;2.322;2022-10-17T03:02:17;100555.31;;;18.61;54.73
22000;BME280;11164;48.818;2.322;2022-10-17T03:04:44;100551.28;;;18.64;54.63
22000;BME280;11164;48.818;2.322;2022-10-17T03:07:10;100553.16;;;18.63;54.58
22000;BME280;11164;48.818;2.322;2022-10-17T03:09:35;100551.53;;;18.62;54.77
22000;BME280;11164;48.818;2.322;2022-10-17T03:12:00;100551.84;;;18.66;54.59
22000;BME280;11164;48.818;2.322;2022-10-17T03:14:26;100558.63;;;18.63;54.65
22000;BME280;11164;48.818;2.322;2022-10-17T03:16:51;100558.13;;;18.66;54.47
22000;BME280;11164;48.818;2.322;2022-10-17T03:19:16;100548.19;;;18.60;54.70
22000;BME280;11164;48.818;2.322;2022-10-17T03:21:42;100555.31;;;18.61;54.73
22000;BME280;11164;48.818;2.322;2022-10-17T03:24:07;100562.44;;;18.62;54.58
22000;BME280;11164;48.818;2.322;2022-10-17T03:26:33;100554.50;;;18.61;54.40
22000;BME280;11164;48.818;2.322;2022-10-17T03:28:58;100565.19;;;18.62;54.30
22000;BME280;11164;48.818;2.322;2022-10-17T03:31:23;100568.16;;;18.61;54.18
22000;BME280;11164;48.818;2.322;2022-10-17T03:33:49;100580.72;;;18.62;54.48
22000;BME280;11164;48.818;2.322;2022-10-17T03:36:16;100580.16;;;18.60;54.41
22000;BME280;11164;48.818;2.322;2022-10-17T03:38:42;100590.81;;;18.61;54.13
22000;BME280;11164;48.818;2.322;2022-10-17T03:41:08;100591.78;;;18.50;54.38
22000;BME280;11164;48.818;2.322;2022-10-17T03:43:33;100608.72;;;18.52;54.50
22000;BME280;11164;48.818;2.322;2022-10-17T03:45:59;100603.03;;;18.53;54.73
22000;BME280;11164;48.818;2.322;2022-10-17T03:48:26;100608.16;;;18.50;54.69
22000;BME280;11164;48.818;2.322;2022-10-17T03:51:00;100613.41;;;18.56;54.73
22000;BME280;11164;48.818;2.322;2022-10-17T03:53:26;100620.03;;;18.61;54.53
22000;BME280;11164;48.818;2.322;2022-10-17T03:55:52;100616.16;;;18.56;54.64
22000;BME280;11164;48.818;2.322;2022-10-17T03:58:17;100623.44;;;18.51;54.48
22000;BME280;11164;48.818;2.322;2022-10-17T04:00:43;100616.34;;;18.50;54.48
22000;BME280;11164;48.818;2.322;2022-10-17T04:03:09;100618.63;;;18.58;54.43
22000;BME280;11164;48.818;2.322;2022-10-17T04:05:34;100624.09;;;18.58;54.19
22000;BME280;11164;48.818;2.322;2022-10-17T04:07:59;100611.22;;;18.53;54.12
22000;BME280;11164;48.818;2.322;2022-10-17T04:10:25;100618.69;;;18.63;53.97
22000;BME280;11164;48.818;2.322;2022-10-17T04:12:50;100621.69;;;18.62;54.15
22000;BME280;11164;48.818;2.322;2022-10-17T04:15:15;100617.25;;;18.55;54.06
22000;BME280;11164;48.818;2.322;2022-10-17T04:17:41;100618.94;;;18.62;53.90
22000;BME280;11164;48.818;2.322;2022-10-17T04:20:06;100628.41;;;18.54;54.20
22000;BME280;11164;48.818;2.322;2022-10-17T04:22:32;100623.13;;;18.47;54.31
22000;BME280;11164;48.818;2.322;2022-10-17T04:24:57;100628.97;;;18.56;54.02
22000;BME280;11164;48.818;2.322;2022-10-17T04:27:23;100634.94;;;18.53;54.09
22000;BME280;11164;48.818;2.322;2022-10-17T04:29:48;100631.63;;;18.51;54.25
22000;BME280;11164;48.818;2.322;2022-10-17T04:32:13;100617.84;;;18.41;54.42
22000;BME280;11164;48.818;2.322;2022-10-17T04:34:39;100633.97;;;18.42;54.42
22000;BME280;11164;48.818;2.322;2022-10-17T04:37:04;100642.97;;;18.43;54.17
22000;BME280;11164;48.818;2.322;2022-10-17T04:39:30;100643.81;;;18.43;54.04
22000;BME280;11164;48.818;2.322;2022-10-17T04:41:55;100655.81;;;18.42;54.23
22000;BME280;11164;48.818;2.322;2022-10-17T04:44:21;100649.59;;;18.47;54.14
22000;BME280;11164;48.818;2.322;2022-10-17T04:46:46;100648.34;;;18.37;54.04
22000;BME280;11164;48.818;2.322;2022-10-17T04:49:12;100646.22;;;18.40;54.07
22000;BME280;11164;48.818;2.322;2022-10-17T04:51:37;100660.44;;;18.42;53.95
22000;BME280;11164;48.818;2.322;2022-10-17T04:54:03;100667.38;;;18.49;53.75
22000;BME280;11164;48.818;2.322;2022-10-17T04:56:28;100667.06;;;18.46;53.97
22000;BME280;11164;48.818;2.322;2022-10-17T04:58:54;100663.84;;;18.49;53.94
22000;BME280;11164;48.818;2.322;2022-10-17T05:01:20;100667.47;;;18.54;53.49
22000;BME280;11164;48.818;2.322;2022-10-17T05:03:46;100670.09;;;18.49;53.62
22000;BME280;11164;48.818;2.322;2022-10-17T05:06:14;100675.50;;;18.44;53.79
22000;BME280;11164;48.818;2.322;2022-10-17T05:08:40;100686.50;;;18.49;53.45
22000;BME280;11164;48.818;2.322;2022-10-17T05:11:15;100698.50;;;18.48;53.25
22000;BME280;11164;48.818;2.322;2022-10-17T05:13:41;100699.00;;;18.45;53.34
22000;BME280;11164;48.818;2.322;2022-10-17T05:16:06;100691.38;;;18.47;53.38
22000;BME280;11164;48.818;2.322;2022-10-17T05:18:31;100691.31;;;18.42;53.36
22000;BME280;11164;48.818;2.322;2022-10-17T05:20:57;100692.22;;;18.31;53.70
22000;BME280;11164;48.818;2.322;2022-10-17T05:23:22;100700.13;;;18.32;53.46
22000;BME280;11164;48.818;2.322;2022-10-17T05:25:53;100685.97;;;18.18;54.04
22000;BME280;11164;48.818;2.322;2022-10-17T05:28:18;100685.47;;;18.22;53.80
22000;BME280;11164;48.818;2.322;2022-10-17T05:30:43;100685.56;;;18.27;53.63
22000;BME280;11164;48.818;2.322;2022-10-17T05:33:08;100689.16;;;18.27;53.57
22000;BME280;11164;48.818;2.322;2022-10-17T05:35:34;100699.00;;;18.28;53.32
22000;BME280;11164;48.818;2.322;2022-10-17T05:38:00;100703.84;;;18.26;53.58
22000;BME280;11164;48.818;2.322;2022-10-17T05:40:25;100700.41;;;18.31;53.40
22000;BME280;11164;48.818;2.322;2022-10-17T05:42:51;100694.09;;;18.30;53.50
22000;BME280;11164;48.818;2.322;2022-10-17T05:45:16;100706.38;;;18.28;53.56
22000;BME280;11164;48.818;2.322;2022-10-17T05:47:42;100700.66;;;18.29;53.61
22000;BME280;11164;48.818;2.322;2022-10-17T05:50:07;100696.59;;;18.32;53.61
22000;BME280;11164;48.818;2.322;2022-10-17T05:52:33;100686.44;;;18.27;53.53
22000;BME280;11164;48.818;2.322;2022-10-17T05:54:59;100683.72;;;18.27;53.63
22000;BME280;11164;48.818;2.322;2022-10-17T05:57:25;100684.84;;;18.31;53.25
22000;BME280;11164;48.818;2.322;2022-10-17T05:59:50;100693.03;;;18.31;53.58
22000;BME280;11164;48.818;2.322;2022-10-17T06:02:16;100678.81;;;18.29;53.55
22000;BME280;11164;48.818;2.322;2022-10-17T06:04:41;100682.63;;;18.28;53.68
22000;BME280;11164;48.818;2.322;2022-10-17T06:07:11;100666.81;;;18.30;53.30
22000;BME280;11164;48.818;2.322;2022-10-17T06:09:37;100667.34;;;18.27;53.70
22000;BME280;11164;48.818;2.322;2022-10-17T06:12:02;100684.56;;;18.16;53.59
22000;BME280;11164;48.818;2.322;2022-10-17T06:14:27;100699.13;;;18.22;53.82
22000;BME280;11164;48.818;2.322;2022-10-17T06:16:53;100684.09;;;18.19;53.76
22000;BME280;11164;48.818;2.322;2022-10-17T06:19:19;100689.38;;;18.26;53.48
22000;BME280;11164;48.818;2.322;2022-10-17T06:21:44;100692.72;;;18.28;53.67
22000;BME280;11164;48.818;2.322;2022-10-17T06:24:09;100683.41;;;18.12;53.94
22000;BME280;11164;48.818;2.322;2022-10-17T06:26:35;100697.94;;;18.29;53.53
22000;BME280;11164;48.818;2.322;2022-10-17T06:29:02;100716.91;;;18.24;53.87
22000;BME280;11164;48.818;2.322;2022-10-17T06:31:28;100729.47;;;18.25;54.08
22000;BME280;11164;48.818;2.322;2022-10-17T06:33:53;100730.44;;;18.31;53.62
22000;BME280;11164;48.818;2.322;2022-10-17T06:36:19;100741.16;;;18.37;53.43
22000;BME280;11164;48.818;2.322;2022-10-17T06:38:44;100744.09;;;18.31;53.83
22000;BME280;11164;48.818;2.322;2022-10-17T06:41:14;100748.47;;;18.32;53.84
22000;BME280;11164;48.818;2.322;2022-10-17T06:43:41;100761.28;;;18.31;53.98
22000;BME280;11164;48.818;2.322;2022-10-17T06:46:08;100755.34;;;18.34;53.62
22000;BME280;11164;48.818;2.322;2022-10-17T06:48:33;100761.53;;;18.30;53.93
22000;BME280;11164;48.818;2.322;2022-10-17T06:51:00;100772.63;;;18.40;53.72
22000;BME280;11164;48.818;2.322;2022-10-17T06:53:29;100773.25;;;18.30;54.07
22000;BME280;11164;48.818;2.322;2022-10-17T06:55:55;100779.00;;;18.46;53.52
22000;BME280;11164;48.818;2.322;2022-10-17T06:58:26;100790.56;;;18.53;53.76
22000;BME280;11164;48.818;2.322;2022-10-17T07:00:51;100796.03;;;18.53;53.81
22000;BME280;11164;48.818;2.322;2022-10-17T07:03:17;100796.63;;;18.55;53.91
22000;BME280;11164;48.818;2.322;2022-10-17T07:05:50;100800.78;;;18.58;53.80
22000;BME280;11164;48.818;2.322;2022-10-17T07:08:16;100816.09;;;18.59;53.68
22000;BME280;11164;48.818;2.322;2022-10-17T07:10:41;100818.63;;;18.65;53.80
22000;BME280;11164;48.818;2.322;2022-10-17T07:13:07;100829.56;;;18.65;53.77
22000;BME280;11164;48.818;2.322;2022-10-17T07:15:32;100837.19;;;18.63;53.62
22000;BME280;11164;48.818;2.322;2022-10-17T07:17:57;100831.13;;;18.61;54.39
22000;BME280;11164;48.818;2.322;2022-10-17T07:20:23;100837.03;;;18.70;53.73
22000;BME280;11164;48.818;2.322;2022-10-17T07:22:48;100839.56;;;18.60;53.87
22000;BME280;11164;48.818;2.322;2022-10-17T07:25:14;100851.59;;;18.75;53.82
22000;BME280;11164;48.818;2.322;2022-10-17T07:27:39;100862.69;;;18.86;53.64
22000;BME280;11164;48.818;2.322;2022-10-17T07:30:05;100857.47;;;18.84;53.57
22000;BME280;11164;48.818;2.322;2022-10-17T07:32:30;100867.09;;;18.87;53.88
22000;BME280;11164;48.818;2.322;2022-10-17T07:34:56;100868.06;;;18.81;53.80
22000;BME280;11164;48.818;2.322;2022-10-17T07:37:21;100866.84;;;18.88;53.56
22000;BME280;11164;48.818;2.322;2022-10-17T07:39:46;100875.53;;;19.02;53.40
22000;BME280;11164;48.818;2.322;2022-10-17T07:42:12;100898.41;;;19.13;53.54
22000;BME280;11164;48.818;2.322;2022-10-17T07:44:39;100893.19;;;19.11;53.79
22000;BME280;11164;48.818;2.322;2022-10-17T07:47:04;100908.94;;;19.21;53.64
22000;BME280;11164;48.818;2.322;2022-10-17T07:49:29;100916.38;;;19.26;53.50
22000;BME280;11164;48.818;2.322;2022-10-17T07:51:55;100903.38;;;19.33;53.36
22000;BME280;11164;48.818;2.322;2022-10-17T07:54:21;100926.97;;;19.39;53.22
22000;BME280;11164;48.818;2.322;2022-10-17T07:56:46;100930.13;;;19.31;53.54
22000;BME280;11164;48.818;2.322;2022-10-17T07:59:18;100927.56;;;19.24;53.80
22000;BME280;11164;48.818;2.322;2022-10-17T08:01:44;100938.41;;;19.19;53.83
22000;BME280;11164;48.818;2.322;2022-10-17T08:04:09;100943.53;;;19.16;54.09
22000;BME280;11164;48.818;2.322;2022-10-17T08:06:35;100942.47;;;19.17;53.67
22000;BME280;11164;48.818;2.322;2022-10-17T08:09:00;100936.19;;;19.16;53.61
22000;BME280;11164;48.818;2.322;2022-10-17T08:11:26;100942.56;;;19.22;53.56
22000;BME280;11164;48.818;2.322;2022-10-17T08:13:52;100960.63;;;19.23;53.79
22000;BME280;11164;48.818;2.322;2022-10-17T08:16:17;100944.81;;;19.25;53.60
22000;BME280;11164;48.818;2.322;2022-10-17T08:18:43;100958.47;;;19.42;53.15
22000;BME280;11164;48.818;2.322;2022-10-17T08:21:10;100952.00;;;19.31;53.82
22000;BME280;11164;48.818;2.322;2022-10-17T08:23:38;100954.09;;;19.41;53.48
22000;BME280;11164;48.818;2.322;2022-10-17T08:26:06;100948.94;;;19.44;53.31
22000;BME280;11164;48.818;2.322;2022-10-17T08:28:37;100959.03;;;19.61;53.39
22000;BME280;11164;48.818;2.322;2022-10-17T08:31:10;100969.63;;;19.74;53.08
22000;BME280;11164;48.818;2.322;2022-10-17T08:33:39;100958.28;;;19.82;53.10
22000;BME280;11164;48.818;2.322;2022-10-17T08:36:05;100973.25;;;19.80;53.52
22000;BME280;11164;48.818;2.322;2022-10-17T08:38:32;100981.06;;;19.71;53.21
22000;BME280;11164;48.818;2.322;2022-10-17T08:41:04;100981.66;;;19.73;53.47
22000;BME280;11164;48.818;2.322;2022-10-17T08:43:45;100990.63;;;19.68;53.29
22000;BME280;11164;48.818;2.322;2022-10-17T08:46:14;100990.78;;;19.62;53.50
22000;BME280;11164;48.818;2.322;2022-10-17T08:48:42;100994.41;;;19.67;53.76
22000;BME280;11164;48.818;2.322;2022-10-17T08:51:22;100996.34;;;19.84;52.97
22000;BME280;11164;48.818;2.322;2022-10-17T08:54:01;101004.09;;;19.92;53.06
22000;BME280;11164;48.818;2.322;2022-10-17T08:56:42;100992.97;;;19.99;52.48
22000;BME280;11164;48.818;2.322;2022-10-17T08:59:28;101005.94;;;20.03;52.79
22000;BME280;11164;48.818;2.322;2022-10-17T09:07:46;101017.28;;;19.95;53.08
22000;BME280;11164;48.818;2.322;2022-10-17T09:18:32;101047.66;;;19.77;53.49
22000;BME280;11164;48.818;2.322;2022-10-17T09:21:20;101075.00;;;19.77;53.60
22000;BME280;11164;48.818;2.322;2022-10-17T09:23:53;101076.72;;;19.66;53.94
22000;BME280;11164;48.818;2.322;2022-10-17T09:26:20;101079.53;;;19.71;53.63
22000;BME280;11164;48.818;2.322;2022-10-17T09:28:52;101076.16;;;19.64;53.88
22000;BME280;11164;48.818;2.322;2022-10-17T09:31:23;101083.63;;;19.68;53.74
22000;BME280;11164;48.818;2.322;2022-10-17T09:33:53;101078.97;;;19.69;53.58
22000;BME280;11164;48.818;2.322;2022-10-17T09:36:39;101089.81;;;19.64;53.94
22000;BME280;11164;48.818;2.322;2022-10-17T09:39:12;101090.66;;;19.47;54.32
22000;BME280;11164;48.818;2.322;2022-10-17T09:41:41;101082.56;;;19.24;54.21
22000;BME280;11164;48.818;2.322;2022-10-17T09:47:21;101097.84;;;19.37;54.47
22000;BME280;11164;48.818;2.322;2022-10-17T09:49:49;101094.13;;;19.43;53.55
22000;BME280;11164;48.818;2.322;2022-10-17T09:52:24;101096.63;;;19.61;53.45
22000;BME280;11164;48.818;2.322;2022-10-17T09:57:27;101095.88;;;19.66;53.59
22000;BME280;11164;48.818;2.322;2022-10-17T09:59:59;101095.81;;;19.78;53.43
22000;BME280;11164;48.818;2.322;2022-10-17T10:02:27;101103.56;;;19.81;53.51
22000;BME280;11164;48.818;2.322;2022-10-17T10:07:20;101100.84;;;19.69;53.86
22000;BME280;11164;48.818;2.322;2022-10-17T10:09:47;101103.00;;;19.67;53.84
22000;BME280;11164;48.818;2.322;2022-10-17T10:12:28;101090.16;;;19.67;54.08
22000;BME280;11164;48.818;2.322;2022-10-17T10:14:54;101096.66;;;19.78;53.69
22000;BME280;11164;48.818;2.322;2022-10-17T10:19:54;101102.22;;;20.00;55.62
22000;BME280;11164;48.818;2.322;2022-10-17T10:22:21;101112.84;;;19.97;53.06
22000;BME280;11164;48.818;2.322;2022-10-17T10:25:15;101132.66;;;20.04;53.94
22000;BME280;11164;48.818;2.322;2022-10-17T10:27:43;101145.03;;;20.06;53.03
22000;BME280;11164;48.818;2.322;2022-10-17T10:30:19;101143.03;;;20.02;53.47
22000;BME280;11164;48.818;2.322;2022-10-17T10:32:47;101163.41;;;20.11;53.48
22000;BME280;11164;48.818;2.322;2022-10-17T10:37:48;101159.59;;;19.78;54.02
22000;BME280;11164;48.818;2.322;2022-10-17T10:40:17;101161.78;;;19.93;54.15
22000;BME280;11164;48.818;2.322;2022-10-17T10:42:46;101153.31;;;19.95;54.29
22000;BME280;11164;48.818;2.322;2022-10-17T10:45:21;101166.75;;;19.96;54.22
22000;BME280;11164;48.818;2.322;2022-10-17T10:48:01;101159.69;;;19.83;54.46
22000;BME280;11164;48.818;2.322;2022-10-17T10:50:41;101185.16;;;19.84;54.96
22000;BME280;11164;48.818;2.322;2022-10-17T10:55:42;101187.31;;;19.82;54.61
22000;BME280;11164;48.818;2.322;2022-10-17T11:00:46;101195.88;;;19.74;54.92
22000;BME280;11164;48.818;2.322;2022-10-17T11:03:19;101188.25;;;19.76;54.87
22000;BME280;11164;48.818;2.322;2022-10-17T11:05:56;101160.47;;;19.67;54.94
22000;BME280;11164;48.818;2.322;2022-10-17T11:11:27;101179.44;;;20.02;54.85
22000;BME280;11164;48.818;2.322;2022-10-17T11:14:27;101192.06;;;20.03;55.24
22000;BME280;11164;48.818;2.322;2022-10-17T11:17:02;101200.00;;;19.88;55.21
22000;BME280;11164;48.818;2.322;2022-10-17T11:19:34;101203.47;;;19.83;55.25
22000;BME280;11164;48.818;2.322;2022-10-17T11:22:36;101219.91;;;20.00;55.98
22000;BME280;11164;48.818;2.322;2022-10-17T11:27:36;101209.28;;;19.87;55.05
22000;BME280;11164;48.818;2.322;2022-10-17T11:30:03;101211.66;;;19.83;55.23
22000;BME280;11164;48.818;2.322;2022-10-17T11:32:41;101205.22;;;19.90;55.60
22000;BME280;11164;48.818;2.322;2022-10-17T11:35:27;101209.28;;;19.87;55.59
22000;BME280;11164;48.818;2.322;2022-10-17T11:40:58;101186.41;;;19.64;55.65
22000;BME280;11164;48.818;2.322;2022-10-17T11:43:34;101149.56;;;19.55;55.89
22000;BME280;11164;48.818;2.322;2022-10-17T11:46:12;101177.84;;;19.61;55.96
22000;BME280;11164;48.818;2.322;2022-10-17T11:48:44;101198.19;;;19.65;55.39
22000;BME280;11164;48.818;2.322;2022-10-17T11:51:13;101207.59;;;19.57;55.76
22000;BME280;11164;48.818;2.322;2022-10-17T11:53:50;101209.59;;;19.62;56.05
22000;BME280;11164;48.818;2.322;2022-10-17T11:56:31;101233.50;;;19.66;55.59
22000;BME280;11164;48.818;2.322;2022-10-17T12:02:22;101256.91;;;19.74;55.86
22000;BME280;11164;48.818;2.322;2022-10-17T12:05:10;101258.09;;;19.78;56.63
22000;BME280;11164;48.818;2.322;2022-10-17T12:07:47;101257.81;;;19.80;56.01
22000;BME280;11164;48.818;2.322;2022-10-17T12:12:52;101265.75;;;19.64;56.05
22000;BME280;11164;48.818;2.322;2022-10-17T12:17:45;101262.06;;;19.59;56.26
22000;BME280;11164;48.818;2.322;2022-10-17T12:22:49;101258.31;;;19.77;56.17
22000;BME280;11164;48.818;2.322;2022-10-17T12:25:19;101251.91;;;19.71;55.80
22000;BME280;11164;48.818;2.322;2022-10-17T12:27:46;101245.59;;;19.82;55.75
22000;BME280;11164;48.818;2.322;2022-10-17T12:30:19;101207.31;;;19.71;55.88
22000;BME280;11164;48.818;2.322;2022-10-17T12:32:59;101227.03;;;19.84;55.98
22000;BME280;11164;48.818;2.322;2022-10-17T12:35:27;101241.19;;;19.81;56.15
22000;BME280;11164;48.818;2.322;2022-10-17T12:43:31;101239.31;;;19.82;55.92
22000;BME280;11164;48.818;2.322;2022-10-17T12:51:18;101237.56;;;19.93;55.81
22000;BME280;11164;48.818;2.322;2022-10-17T12:56:17;101245.22;;;19.79;55.86
22000;BME280;11164;48.818;2.322;2022-10-17T12:58:47;101257.47;;;19.76;56.26
22000;BME280;11164;48.818;2.322;2022-10-17T13:01:30;101246.09;;;19.67;56.32
22000;BME280;11164;48.818;2.322;2022-10-17T13:03:58;101247.63;;;19.75;55.89
22000;BME280;11164;48.818;2.322;2022-10-17T13:06:31;101244.13;;;19.80;56.00
22000;BME280;11164;48.818;2.322;2022-10-17T13:09:04;101244.25;;;20.14;56.89
22000;BME280;11164;48.818;2.322;2022-10-17T13:11:34;101229.88;;;19.78;55.53
22000;BME280;11164;48.818;2.322;2022-10-17T13:14:02;101256.53;;;19.82;55.84
22000;BME280;11164;48.818;2.322;2022-10-17T13:16:38;101252.72;;;19.83;55.64
22000;BME280;11164;48.818;2.322;2022-10-17T13:19:40;101267.94;;;19.91;56.28
22000;BME280;11164;48.818;2.322;2022-10-17T13:22:14;101257.25;;;19.78;55.93
22000;BME280;11164;48.818;2.322;2022-10-17T13:24:40;101263.41;;;19.85;55.73
22000;BME280;11164;48.818;2.322;2022-10-17T13:27:31;101253.31;;;19.85;56.45
22000;BME280;11164;48.818;2.322;2022-10-17T13:29:58;101264.38;;;19.91;55.98
22000;BME280;11164;48.818;2.322;2022-10-17T13:32:34;101253.19;;;19.80;56.04
22000;BME280;11164;48.818;2.322;2022-10-17T13:35:05;101237.75;;;19.74;56.21
22000;BME280;11164;48.818;2.322;2022-10-17T13:37:32;101230.53;;;19.68;56.05
22000;BME280;11164;48.818;2.322;2022-10-17T13:39:58;101242.03;;;19.82;56.02
22000;BME280;11164;48.818;2.322;2022-10-17T13:42:28;101254.50;;;19.78;55.92
22000;BME280;11164;48.818;2.322;2022-10-17T13:44:54;101263.81;;;19.77;55.91
22000;BME280;11164;48.818;2.322;2022-10-17T13:47:26;101269.75;;;19.74;56.24
22000;BME280;11164;48.818;2.322;2022-10-17T13:49:52;101281.66;;;19.67;56.29
22000;BME280;11164;48.818;2.322;2022-10-17T13:52:28;101303.22;;;19.52;56.95
22000;BME280;11164;48.818;2.322;2022-10-17T13:54:59;101308.84;;;19.45;56.73
22000;BME280;11164;48.818;2.322;2022-10-17T13:57:30;101301.94;;;19.43;56.95
22000;BME280;11164;48.818;2.322;2022-10-17T13:59:58;101291.72;;;19.38;56.94
22000;BME280;11164;48.818;2.322;2022-10-17T14:02:31;101291.59;;;19.45;57.20
22000;BME280;11164;48.818;2.322;2022-10-17T14:05:11;101279.34;;;19.47;57.32
22000;BME280;11164;48.818;2.322;2022-10-17T14:07:41;101292.38;;;19.57;57.02
22000;BME280;11164;48.818;2.322;2022-10-17T14:10:18;101298.81;;;19.63;56.90
22000;BME280;11164;48.818;2.322;2022-10-17T14:12:45;101313.19;;;19.70;56.54
22000;BME280;11164;48.818;2.322;2022-10-17T14:15:13;101291.47;;;19.52;57.00
22000;BME280;11164;48.818;2.322;2022-10-17T14:17:40;101291.13;;;19.48;56.94
22000;BME280;11164;48.818;2.322;2022-10-17T14:20:15;101286.69;;;19.59;56.66
22000;BME280;11164;48.818;2.322;2022-10-17T14:22:41;101287.66;;;19.53;56.90
22000;BME280;11164;48.818;2.322;2022-10-17T14:28:00;101281.69;;;19.56;56.64
22000;BME280;11164;48.818;2.322;2022-10-17T14:33:04;101273.25;;;19.57;56.88
22000;BME280;11164;48.818;2.322;2022-10-17T14:35:30;101281.66;;;19.67;56.43
22000;BME280;11164;48.818;2.322;2022-10-17T14:38:03;101286.69;;;19.59;56.70
22000;BME280;11164;48.818;2.322;2022-10-17T14:40:31;101280.72;;;19.62;56.48